sensor_id;sensor_type;location;lat;lon;timestamp;P1;durP1;ratioP1;P2;durP2;ratioP2
20525;SDS011;10421;49.142;9.232;2023-06-14T00:01:58;7.93;;;5.90;;
20525;SDS011;10421;49.142;9.232;2023-06-14T00:04:25;7.73;;;5.53;;
20525;SDS011;10421;49.142;9.232;2023-06-14T00:06:52;7.07;;;5.80;;
20525;SDS011;10421;49.142;9.232;2023-06-14T00:09:23;7.87;;;5.53;;
20525;SDS011;10421;49.142;9.232;2023-06-14T00:11:49;6.87;;;5.30;;
20525;SDS011;10421;49.142;9.232;2023-06-14T00:14:19;7.30;;;5.63;;
20525;SDS011;10421;49.142;9.232;2023-06-14T00:16:46;5.47;;;4.90;;
20525;SDS011;10421;49.142;9.232;2023-06-14T00:19:13;9.50;;;6.43;;
20525;SDS011;10421;49.142;9.232;2023-06-14T00:21:41;8.73;;;5.87;;
20525;SDS011;10421;49.142;9.232;2023-06-14T00:24:08;8.33;;;5.97;;
20525;SDS011;10421;49.142;9.232;2023-06-14T00:26:36;6.10;;;5.20;;
20525;SDS011;10421;49.142;9.232;2023-06-14T00:29:04;7.73;;;5.37;;
20525;SDS011;10421;49.142;9.232;2023-06-14T00:31:32;8.67;;;5.20;;
20525;SDS011;10421;49.142;9.232;2023-06-14T00:33:58;9.80;;;5.80;;
20525;SDS011;10421;49.142;9.232;2023-06-14T00:36:25;9.13;;;5.80;;
20525;SDS011;10421;49.142;9.232;2023-06-14T00:38:53;7.73;;;6.20;;
20525;SDS011;10421;49.142;9.232;2023-06-14T00:41:20;5.63;;;5.03;;
20525;SDS011;10421;49.142;9.232;2023-06-14T00:43:49;7.17;;;5.50;;
20525;SDS011;10421;49.142;9.232;2023-06-14T00:46:17;6.33;;;5.57;;
20525;SDS011;10421;49.142;9.232;2023-06-14T00:48:44;8.53;;;4.60;;
20525;SDS011;10421;49.142;9.232;2023-06-14T00:51:12;7.27;;;5.03;;
20525;SDS011;10421;49.142;9.232;2023-06-14T00:53:38;8.13;;;5.50;;
20525;SDS011;10421;49.142;9.232;2023-06-14T00:56:11;5.83;;;4.67;;
20525;SDS011;10421;49.142;9.232;2023-06-14T00:58:38;6.97;;;5.10;;
20525;SDS011;10421;49.142;9.232;2023-06-14T01:01:07;8.70;;;6.57;;
20525;SDS011;10421;49.142;9.232;2023-06-14T01:03:34;7.87;;;5.23;;
20525;SDS011;10421;49.142;9.232;2023-06-14T01:06:03;18.47;;;14.00;;
20525;SDS011;10421;49.142;9.232;2023-06-14T01:08:40;22.77;;;15.30;;
20525;SDS011;10421;49.142;9.232;2023-06-14T01:11:16;19.80;;;12.60;;
20525;SDS011;10421;49.142;9.232;2023-06-14T01:13:48;9.73;;;7.20;;
20525;SDS011;10421;49.142;9.232;2023-06-14T01:16:19;7.97;;;6.07;;
20525;SDS011;10421;49.142;9.232;2023-06-14T01:18:46;6.60;;;5.53;;
20525;SDS011;10421;49.142;9.232;2023-06-14T01:21:20;10.30;;;6.40;;
20525;SDS011;10421;49.142;9.232;2023-06-14T01:23:50;9.10;;;5.80;;
20525;SDS011;10421;49.142;9.232;2023-06-14T01:26:18;8.30;;;6.30;;
20525;SDS011;10421;49.142;9.232;2023-06-14T01:28:46;7.30;;;5.90;;
20525;SDS011;10421;49.142;9.232;2023-06-14T01:31:16;6.10;;;5.50;;
20525;SDS011;10421;49.142;9.232;2023-06-14T01:33:46;7.30;;;5.53;;
20525;SDS011;10421;49.142;9.232;2023-06-14T01:36:14;6.17;;;5.57;;
20525;SDS011;10421;49.142;9.232;2023-06-14T01:38:42;9.73;;;6.23;;
20525;SDS011;10421;49.142;9.232;2023-06-14T01:41:14;6.90;;;5.67;;
20525;SDS011;10421;49.142;9.232;2023-06-14T01:43:42;9.13;;;5.60;;
20525;SDS011;10421;49.142;9.232;2023-06-14T01:46:09;6.70;;;5.67;;
20525;SDS011;10421;49.142;9.232;2023-06-14T01:48:37;8.27;;;6.80;;
20525;SDS011;10421;49.142;9.232;2023-06-14T01:51:04;7.73;;;5.83;;
20525;SDS011;10421;49.142;9.232;2023-06-14T01:53:31;8.37;;;5.77;;
20525;SDS011;10421;49.142;9.232;2023-06-14T01:55:57;8.80;;;5.80;;
20525;SDS011;10421;49.142;9.232;2023-06-14T01:58:26;6.17;;;5.53;;
20525;SDS011;10421;49.142;9.232;2023-06-14T02:00:53;6.20;;;5.60;;
20525;SDS011;10421;49.142;9.232;2023-06-14T02:03:21;9.13;;;5.57;;
20525;SDS011;10421;49.142;9.232;2023-06-14T02:05:48;5.97;;;5.03;;
20525;SDS011;10421;49.142;9.232;2023-06-14T02:08:15;5.67;;;5.07;;
20525;SDS011;10421;49.142;9.232;2023-06-14T02:10:41;6.93;;;5.10;;
20525;SDS011;10421;49.142;9.232;2023-06-14T02:13:08;6.50;;;5.40;;
20525;SDS011;10421;49.142;9.232;2023-06-14T02:15:36;6.20;;;5.60;;
20525;SDS011;10421;49.142;9.232;2023-06-14T02:18:03;10.77;;;5.97;;
20525;SDS011;10421;49.142;9.232;2023-06-14T02:20:30;7.20;;;6.07;;
20525;SDS011;10421;49.142;9.232;2023-06-14T02:22:57;10.13;;;6.17;;
20525;SDS011;10421;49.142;9.232;2023-06-14T02:25:24;7.73;;;5.83;;
20525;SDS011;10421;49.142;9.232;2023-06-14T02:27:52;6.97;;;5.47;;
20525;SDS011;10421;49.142;9.232;2023-06-14T02:30:19;5.37;;;4.83;;
20525;SDS011;10421;49.142;9.232;2023-06-14T02:32:48;6.63;;;5.77;;
20525;SDS011;10421;49.142;9.232;2023-06-14T02:35:16;7.83;;;6.03;;
20525;SDS011;10421;49.142;9.232;2023-06-14T02:37:43;7.53;;;6.47;;
20525;SDS011;10421;49.142;9.232;2023-06-14T02:40:10;7.20;;;6.17;;
20525;SDS011;10421;49.142;9.232;2023-06-14T02:42:37;6.97;;;5.50;;
20525;SDS011;10421;49.142;9.232;2023-06-14T02:45:04;5.87;;;5.30;;
20525;SDS011;10421;49.142;9.232;2023-06-14T02:47:32;7.97;;;6.10;;
20525;SDS011;10421;49.142;9.232;2023-06-14T02:50:00;9.67;;;6.03;;
20525;SDS011;10421;49.142;9.232;2023-06-14T02:52:27;9.40;;;5.43;;
20525;SDS011;10421;49.142;9.232;2023-06-14T02:54:54;8.53;;;6.13;;
20525;SDS011;10421;49.142;9.232;2023-06-14T02:57:21;7.93;;;5.47;;
20525;SDS011;10421;49.142;9.232;2023-06-14T02:59:48;9.67;;;6.13;;
20525;SDS011;10421;49.142;9.232;2023-06-14T03:02:15;8.80;;;6.17;;
20525;SDS011;10421;49.142;9.232;2023-06-14T03:04:41;6.93;;;6.17;;
20525;SDS011;10421;49.142;9.232;2023-06-14T03:07:10;9.13;;;6.80;;
20525;SDS011;10421;49.142;9.232;2023-06-14T03:09:38;10.90;;;7.07;;
20525;SDS011;10421;49.142;9.232;2023-06-14T03:12:06;7.27;;;6.10;;
20525;SDS011;10421;49.142;9.232;2023-06-14T03:14:34;11.10;;;6.60;;
20525;SDS011;10421;49.142;9.232;2023-06-14T03:17:01;8.20;;;6.87;;
20525;SDS011;10421;49.142;9.232;2023-06-14T03:19:29;7.80;;;6.67;;
20525;SDS011;10421;49.142;9.232;2023-06-14T03:21:56;9.00;;;5.87;;
20525;SDS011;10421;49.142;9.232;2023-06-14T03:24:25;7.37;;;6.10;;
20525;SDS011;10421;49.142;9.232;2023-06-14T03:26:53;7.73;;;6.20;;
20525;SDS011;10421;49.142;9.232;2023-06-14T03:29:21;9.20;;;5.57;;
20525;SDS011;10421;49.142;9.232;2023-06-14T03:31:57;9.20;;;6.67;;
20525;SDS011;10421;49.142;9.232;2023-06-14T03:34:25;11.00;;;6.77;;
20525;SDS011;10421;49.142;9.232;2023-06-14T03:36:52;8.30;;;6.83;;
20525;SDS011;10421;49.142;9.232;2023-06-14T03:39:19;8.13;;;6.70;;
20525;SDS011;10421;49.142;9.232;2023-06-14T03:41:47;9.33;;;6.43;;
20525;SDS011;10421;49.142;9.232;2023-06-14T03:44:15;9.07;;;6.80;;
20525;SDS011;10421;49.142;9.232;2023-06-14T03:46:42;8.73;;;6.30;;
20525;SDS011;10421;49.142;9.232;2023-06-14T03:49:10;8.07;;;6.40;;
20525;SDS011;10421;49.142;9.232;2023-06-14T03:51:37;11.20;;;6.90;;
20525;SDS011;10421;49.142;9.232;2023-06-14T03:54:05;7.10;;;6.40;;
20525;SDS011;10421;49.142;9.232;2023-06-14T03:56:32;7.57;;;6.60;;
20525;SDS011;10421;49.142;9.232;2023-06-14T03:59:00;8.57;;;6.40;;
20525;SDS011;10421;49.142;9.232;2023-06-14T04:01:27;8.17;;;6.77;;
20525;SDS011;10421;49.142;9.232;2023-06-14T04:03:55;8.47;;;6.40;;
20525;SDS011;10421;49.142;9.232;2023-06-14T04:06:22;8.40;;;6.23;;
20525;SDS011;10421;49.142;9.232;2023-06-14T04:08:56;10.87;;;6.80;;
20525;SDS011;10421;49.142;9.232;2023-06-14T04:11:26;12.80;;;7.50;;
20525;SDS011;10421;49.142;9.232;2023-06-14T04:13:52;11.10;;;6.87;;
20525;SDS011;10421;49.142;9.232;2023-06-14T04:16:22;7.73;;;6.90;;
20525;SDS011;10421;49.142;9.232;2023-06-14T04:18:49;14.13;;;8.43;;
20525;SDS011;10421;49.142;9.232;2023-06-14T04:21:17;8.90;;;6.50;;
20525;SDS011;10421;49.142;9.232;2023-06-14T04:23:44;12.83;;;6.50;;
20525;SDS011;10421;49.142;9.232;2023-06-14T04:26:10;14.20;;;7.30;;
20525;SDS011;10421;49.142;9.232;2023-06-14T04:28:37;8.73;;;7.00;;
20525;SDS011;10421;49.142;9.232;2023-06-14T04:31:05;7.57;;;6.77;;
20525;SDS011;10421;49.142;9.232;2023-06-14T04:33:34;11.37;;;7.53;;
20525;SDS011;10421;49.142;9.232;2023-06-14T04:36:08;9.93;;;7.57;;
20525;SDS011;10421;49.142;9.232;2023-06-14T04:38:36;8.20;;;6.60;;
20525;SDS011;10421;49.142;9.232;2023-06-14T04:41:03;9.33;;;6.83;;
20525;SDS011;10421;49.142;9.232;2023-06-14T04:43:30;8.70;;;7.43;;
20525;SDS011;10421;49.142;9.232;2023-06-14T04:46:03;7.93;;;6.47;;
20525;SDS011;10421;49.142;9.232;2023-06-14T04:48:30;11.20;;;7.70;;
20525;SDS011;10421;49.142;9.232;2023-06-14T04:50:58;10.83;;;7.80;;
20525;SDS011;10421;49.142;9.232;2023-06-14T04:53:25;8.00;;;7.00;;
20525;SDS011;10421;49.142;9.232;2023-06-14T04:55:54;8.13;;;7.13;;
20525;SDS011;10421;49.142;9.232;2023-06-14T04:58:20;14.47;;;7.43;;
20525;SDS011;10421;49.142;9.232;2023-06-14T05:00:47;8.60;;;7.10;;
20525;SDS011;10421;49.142;9.232;2023-06-14T05:03:14;10.77;;;7.13;;
20525;SDS011;10421;49.142;9.232;2023-06-14T05:05:43;12.00;;;7.90;;
20525;SDS011;10421;49.142;9.232;2023-06-14T05:08:11;10.40;;;7.37;;
20525;SDS011;10421;49.142;9.232;2023-06-14T05:10:38;10.00;;;8.40;;
20525;SDS011;10421;49.142;9.232;2023-06-14T05:13:05;9.40;;;7.10;;
20525;SDS011;10421;49.142;9.232;2023-06-14T05:15:32;11.00;;;7.30;;
20525;SDS011;10421;49.142;9.232;2023-06-14T05:17:59;11.30;;;7.63;;
20525;SDS011;10421;49.142;9.232;2023-06-14T05:20:25;13.17;;;7.73;;
20525;SDS011;10421;49.142;9.232;2023-06-14T05:22:52;8.97;;;7.10;;
20525;SDS011;10421;49.142;9.232;2023-06-14T05:25:20;9.67;;;7.37;;
20525;SDS011;10421;49.142;9.232;2023-06-14T05:27:47;10.87;;;7.30;;
20525;SDS011;10421;49.142;9.232;2023-06-14T05:30:15;9.13;;;7.00;;
20525;SDS011;10421;49.142;9.232;2023-06-14T05:32:41;8.87;;;7.50;;
20525;SDS011;10421;49.142;9.232;2023-06-14T05:35:08;13.57;;;9.00;;
20525;SDS011;10421;49.142;9.232;2023-06-14T05:37:35;8.90;;;7.40;;
20525;SDS011;10421;49.142;9.232;2023-06-14T05:40:03;9.40;;;7.27;;
20525;SDS011;10421;49.142;9.232;2023-06-14T05:42:32;10.00;;;7.20;;
20525;SDS011;10421;49.142;9.232;2023-06-14T05:44:59;12.90;;;8.60;;
20525;SDS011;10421;49.142;9.232;2023-06-14T05:47:26;11.07;;;7.70;;
20525;SDS011;10421;49.142;9.232;2023-06-14T05:49:52;9.37;;;7.10;;
20525;SDS011;10421;49.142;9.232;2023-06-14T05:52:20;8.40;;;7.50;;
20525;SDS011;10421;49.142;9.232;2023-06-14T05:54:47;8.40;;;6.93;;
20525;SDS011;10421;49.142;9.232;2023-06-14T05:57:14;11.43;;;8.33;;
20525;SDS011;10421;49.142;9.232;2023-06-14T05:59:42;9.97;;;7.07;;
20525;SDS011;10421;49.142;9.232;2023-06-14T06:02:09;8.97;;;7.13;;
20525;SDS011;10421;49.142;9.232;2023-06-14T06:04:35;8.63;;;7.00;;
20525;SDS011;10421;49.142;9.232;2023-06-14T06:07:02;11.27;;;7.13;;
20525;SDS011;10421;49.142;9.232;2023-06-14T06:09:30;10.20;;;7.37;;
20525;SDS011;10421;49.142;9.232;2023-06-14T06:11:57;10.93;;;7.90;;
20525;SDS011;10421;49.142;9.232;2023-06-14T06:14:23;8.23;;;7.10;;
20525;SDS011;10421;49.142;9.232;2023-06-14T06:16:51;8.77;;;7.23;;
20525;SDS011;10421;49.142;9.232;2023-06-14T06:19:18;14.80;;;7.70;;
20525;SDS011;10421;49.142;9.232;2023-06-14T06:21:45;9.17;;;7.47;;
20525;SDS011;10421;49.142;9.232;2023-06-14T06:24:12;9.47;;;7.63;;
20525;SDS011;10421;49.142;9.232;2023-06-14T06:26:39;13.03;;;7.27;;
20525;SDS011;10421;49.142;9.232;2023-06-14T06:29:06;10.80;;;7.47;;
20525;SDS011;10421;49.142;9.232;2023-06-14T06:31:33;8.90;;;6.63;;
20525;SDS011;10421;49.142;9.232;2023-06-14T06:34:01;11.57;;;7.30;;
20525;SDS011;10421;49.142;9.232;2023-06-14T06:36:27;9.43;;;7.73;;
20525;SDS011;10421;49.142;9.232;2023-06-14T06:38:54;9.47;;;6.30;;
20525;SDS011;10421;49.142;9.232;2023-06-14T06:41:21;10.37;;;8.17;;
20525;SDS011;10421;49.142;9.232;2023-06-14T06:43:48;9.57;;;7.20;;
20525;SDS011;10421;49.142;9.232;2023-06-14T06:46:15;10.17;;;7.80;;
20525;SDS011;10421;49.142;9.232;2023-06-14T06:48:43;9.23;;;7.10;;
20525;SDS011;10421;49.142;9.232;2023-06-14T06:51:11;9.50;;;7.47;;
20525;SDS011;10421;49.142;9.232;2023-06-14T06:53:38;8.30;;;6.87;;
20525;SDS011;10421;49.142;9.232;2023-06-14T06:56:04;13.50;;;8.47;;
20525;SDS011;10421;49.142;9.232;2023-06-14T06:58:31;8.57;;;6.43;;
20525;SDS011;10421;49.142;9.232;2023-06-14T07:00:58;8.20;;;6.50;;
20525;SDS011;10421;49.142;9.232;2023-06-14T07:03:25;9.93;;;7.10;;
20525;SDS011;10421;49.142;9.232;2023-06-14T07:05:51;9.10;;;7.30;;
20525;SDS011;10421;49.142;9.232;2023-06-14T07:08:19;11.07;;;8.30;;
20525;SDS011;10421;49.142;9.232;2023-06-14T07:10:46;7.90;;;7.10;;
20525;SDS011;10421;49.142;9.232;2023-06-14T07:13:13;9.40;;;6.53;;
20525;SDS011;10421;49.142;9.232;2023-06-14T07:15:40;15.80;;;7.40;;
20525;SDS011;10421;49.142;9.232;2023-06-14T07:18:06;10.90;;;6.00;;
20525;SDS011;10421;49.142;9.232;2023-06-14T07:20:33;8.27;;;6.97;;
20525;SDS011;10421;49.142;9.232;2023-06-14T07:23:03;7.50;;;6.30;;
20525;SDS011;10421;49.142;9.232;2023-06-14T07:25:31;8.63;;;6.60;;
20525;SDS011;10421;49.142;9.232;2023-06-14T07:27:58;7.60;;;6.80;;
20525;SDS011;10421;49.142;9.232;2023-06-14T07:30:25;10.37;;;7.50;;
20525;SDS011;10421;49.142;9.232;2023-06-14T07:32:52;8.50;;;6.40;;
20525;SDS011;10421;49.142;9.232;2023-06-14T07:35:19;8.50;;;6.50;;
20525;SDS011;10421;49.142;9.232;2023-06-14T07:37:46;10.20;;;7.30;;
20525;SDS011;10421;49.142;9.232;2023-06-14T07:40:13;8.10;;;6.33;;
20525;SDS011;10421;49.142;9.232;2023-06-14T07:42:41;6.90;;;6.20;;
20525;SDS011;10421;49.142;9.232;2023-06-14T07:45:08;7.10;;;6.40;;
20525;SDS011;10421;49.142;9.232;2023-06-14T07:47:35;6.90;;;5.90;;
20525;SDS011;10421;49.142;9.232;2023-06-14T07:50:02;7.40;;;6.00;;
20525;SDS011;10421;49.142;9.232;2023-06-14T07:52:29;6.17;;;5.57;;
20525;SDS011;10421;49.142;9.232;2023-06-14T07:54:56;7.00;;;6.17;;
20525;SDS011;10421;49.142;9.232;2023-06-14T07:57:23;8.47;;;5.87;;
20525;SDS011;10421;49.142;9.232;2023-06-14T07:59:51;7.47;;;6.67;;
20525;SDS011;10421;49.142;9.232;2023-06-14T08:02:18;8.20;;;6.97;;
20525;SDS011;10421;49.142;9.232;2023-06-14T08:04:45;6.73;;;6.03;;
20525;SDS011;10421;49.142;9.232;2023-06-14T08:07:13;8.00;;;7.13;;
20525;SDS011;10421;49.142;9.232;2023-06-14T08:09:40;7.00;;;5.70;;
20525;SDS011;10421;49.142;9.232;2023-06-14T08:12:07;8.90;;;6.00;;
20525;SDS011;10421;49.142;9.232;2023-06-14T08:14:35;6.43;;;5.83;;
20525;SDS011;10421;49.142;9.232;2023-06-14T08:17:03;7.37;;;6.23;;
20525;SDS011;10421;49.142;9.232;2023-06-14T08:19:30;8.23;;;5.90;;
20525;SDS011;10421;49.142;9.232;2023-06-14T08:21:57;7.63;;;5.87;;
20525;SDS011;10421;49.142;9.232;2023-06-14T08:24:25;9.13;;;6.00;;
20525;SDS011;10421;49.142;9.232;2023-06-14T08:26:52;6.20;;;5.60;;
20525;SDS011;10421;49.142;9.232;2023-06-14T08:29:18;13.00;;;6.83;;
20525;SDS011;10421;49.142;9.232;2023-06-14T08:31:46;8.20;;;6.00;;
20525;SDS011;10421;49.142;9.232;2023-06-14T08:34:15;7.43;;;6.67;;
20525;SDS011;10421;49.142;9.232;2023-06-14T08:36:41;7.20;;;6.07;;
20525;SDS011;10421;49.142;9.232;2023-06-14T08:39:08;6.50;;;5.80;;
20525;SDS011;10421;49.142;9.232;2023-06-14T08:41:35;8.67;;;6.10;;
20525;SDS011;10421;49.142;9.232;2023-06-14T08:44:02;8.03;;;6.20;;
20525;SDS011;10421;49.142;9.232;2023-06-14T08:46:29;8.87;;;6.07;;
20525;SDS011;10421;49.142;9.232;2023-06-14T08:48:59;9.80;;;6.13;;
20525;SDS011;10421;49.142;9.232;2023-06-14T08:51:38;7.60;;;6.27;;
20525;SDS011;10421;49.142;9.232;2023-06-14T08:54:05;6.70;;;5.77;;
20525;SDS011;10421;49.142;9.232;2023-06-14T08:56:33;6.70;;;6.00;;
20525;SDS011;10421;49.142;9.232;2023-06-14T08:59:03;10.03;;;6.63;;
20525;SDS011;10421;49.142;9.232;2023-06-14T09:01:33;8.50;;;5.50;;
20525;SDS011;10421;49.142;9.232;2023-06-14T09:04:01;6.87;;;5.50;;
20525;SDS011;10421;49.142;9.232;2023-06-14T09:06:30;6.90;;;5.87;;
20525;SDS011;10421;49.142;9.232;2023-06-14T09:08:59;10.50;;;6.80;;
20525;SDS011;10421;49.142;9.232;2023-06-14T09:11:26;6.70;;;5.70;;
20525;SDS011;10421;49.142;9.232;2023-06-14T09:13:52;7.90;;;6.27;;
20525;SDS011;10421;49.142;9.232;2023-06-14T09:16:19;8.27;;;6.50;;
20525;SDS011;10421;49.142;9.232;2023-06-14T09:18:46;6.57;;;5.97;;
20525;SDS011;10421;49.142;9.232;2023-06-14T09:21:13;10.00;;;5.90;;
20525;SDS011;10421;49.142;9.232;2023-06-14T09:23:41;7.53;;;5.87;;
20525;SDS011;10421;49.142;9.232;2023-06-14T09:26:10;8.57;;;6.10;;
20525;SDS011;10421;49.142;9.232;2023-06-14T09:28:40;8.87;;;6.07;;
20525;SDS011;10421;49.142;9.232;2023-06-14T09:31:09;8.73;;;6.17;;
20525;SDS011;10421;49.142;9.232;2023-06-14T09:33:36;9.63;;;6.20;;
20525;SDS011;10421;49.142;9.232;2023-06-14T09:36:03;6.90;;;6.07;;
20525;SDS011;10421;49.142;9.232;2023-06-14T09:38:30;7.43;;;5.33;;
20525;SDS011;10421;49.142;9.232;2023-06-14T09:40:57;6.80;;;6.17;;
20525;SDS011;10421;49.142;9.232;2023-06-14T09:43:26;6.33;;;5.73;;
20525;SDS011;10421;49.142;9.232;2023-06-14T09:45:54;5.93;;;5.43;;
20525;SDS011;10421;49.142;9.232;2023-06-14T09:48:20;5.93;;;5.40;;
20525;SDS011;10421;49.142;9.232;2023-06-14T09:50:47;7.30;;;5.70;;
20525;SDS011;10421;49.142;9.232;2023-06-14T09:53:16;9.17;;;5.83;;
20525;SDS011;10421;49.142;9.232;2023-06-14T09:55:48;7.20;;;5.07;;
20525;SDS011;10421;49.142;9.232;2023-06-14T09:58:16;7.07;;;5.57;;
20525;SDS011;10421;49.142;9.232;2023-06-14T10:00:47;6.17;;;5.30;;
20525;SDS011;10421;49.142;9.232;2023-06-14T10:03:19;5.30;;;4.80;;
20525;SDS011;10421;49.142;9.232;2023-06-14T10:05:49;6.20;;;5.60;;
20525;SDS011;10421;49.142;9.232;2023-06-14T10:08:17;5.80;;;4.97;;
20525;SDS011;10421;49.142;9.232;2023-06-14T10:10:45;6.53;;;5.93;;
20525;SDS011;10421;49.142;9.232;2023-06-14T10:13:12;6.47;;;5.77;;
20525;SDS011;10421;49.142;9.232;2023-06-14T10:15:41;6.37;;;5.77;;
20525;SDS011;10421;49.142;9.232;2023-06-14T10:18:17;7.23;;;5.70;;
20525;SDS011;10421;49.142;9.232;2023-06-14T10:20:51;5.80;;;5.30;;
20525;SDS011;10421;49.142;9.232;2023-06-14T10:23:24;7.70;;;6.20;;
20525;SDS011;10421;49.142;9.232;2023-06-14T10:25:54;5.93;;;5.10;;
20525;SDS011;10421;49.142;9.232;2023-06-14T10:28:24;6.27;;;5.37;;
20525;SDS011;10421;49.142;9.232;2023-06-14T10:31:01;8.60;;;4.90;;
20525;SDS011;10421;49.142;9.232;2023-06-14T10:33:33;5.60;;;4.93;;
20525;SDS011;10421;49.142;9.232;2023-06-14T10:36:07;6.30;;;5.63;;
20525;SDS011;10421;49.142;9.232;2023-06-14T10:38:59;6.07;;;5.10;;
20525;SDS011;10421;49.142;9.232;2023-06-14T10:41:27;5.80;;;5.00;;
20525;SDS011;10421;49.142;9.232;2023-06-14T10:46:59;5.03;;;4.63;;
20525;SDS011;10421;49.142;9.232;2023-06-14T10:49:37;5.13;;;4.63;;
20525;SDS011;10421;49.142;9.232;2023-06-14T10:52:07;5.63;;;5.07;;
20525;SDS011;10421;49.142;9.232;2023-06-14T10:54:55;4.63;;;4.23;;
20525;SDS011;10421;49.142;9.232;2023-06-14T10:57:41;5.40;;;4.90;;
20525;SDS011;10421;49.142;9.232;2023-06-14T11:00:11;5.30;;;4.20;;
20525;SDS011;10421;49.142;9.232;2023-06-14T11:02:50;4.80;;;4.40;;
20525;SDS011;10421;49.142;9.232;2023-06-14T11:05:28;6.80;;;5.30;;
20525;SDS011;10421;49.142;9.232;2023-06-14T11:07:58;5.37;;;4.87;;
20525;SDS011;10421;49.142;9.232;2023-06-14T11:10:51;5.20;;;4.80;;
20525;SDS011;10421;49.142;9.232;2023-06-14T11:13:25;8.50;;;5.53;;
20525;SDS011;10421;49.142;9.232;2023-06-14T11:15:53;5.97;;;5.37;;
20525;SDS011;10421;49.142;9.232;2023-06-14T11:18:21;6.30;;;5.70;;
20525;SDS011;10421;49.142;9.232;2023-06-14T11:20:50;6.23;;;5.63;;
20525;SDS011;10421;49.142;9.232;2023-06-14T11:23:17;6.93;;;4.87;;
20525;SDS011;10421;49.142;9.232;2023-06-14T11:25:49;5.77;;;4.90;;
20525;SDS011;10421;49.142;9.232;2023-06-14T11:28:16;5.73;;;4.87;;
20525;SDS011;10421;49.142;9.232;2023-06-14T11:30:44;6.73;;;5.20;;
20525;SDS011;10421;49.142;9.232;2023-06-14T11:33:11;5.50;;;5.00;;
20525;SDS011;10421;49.142;9.232;2023-06-14T11:35:44;6.47;;;5.20;;
20525;SDS011;10421;49.142;9.232;2023-06-14T11:38:12;5.30;;;4.90;;
20525;SDS011;10421;49.142;9.232;2023-06-14T11:40:39;5.63;;;4.73;;
20525;SDS011;10421;49.142;9.232;2023-06-14T11:43:06;5.40;;;4.90;;
20525;SDS011;10421;49.142;9.232;2023-06-14T11:45:33;4.80;;;4.27;;
20525;SDS011;10421;49.142;9.232;2023-06-14T11:48:00;9.33;;;4.87;;
20525;SDS011;10421;49.142;9.232;2023-06-14T11:50:27;5.13;;;4.73;;
20525;SDS011;10421;49.142;9.232;2023-06-14T11:52:54;4.87;;;4.37;;
20525;SDS011;10421;49.142;9.232;2023-06-14T11:55:23;4.47;;;4.07;;
20525;SDS011;10421;49.142;9.232;2023-06-14T11:57:50;7.63;;;4.30;;
20525;SDS011;10421;49.142;9.232;2023-06-14T12:00:17;6.17;;;4.43;;
20525;SDS011;10421;49.142;9.232;2023-06-14T12:02:52;5.03;;;3.83;;
20525;SDS011;10421;49.142;9.232;2023-06-14T12:05:20;4.23;;;3.83;;
20525;SDS011;10421;49.142;9.232;2023-06-14T12:07:47;6.53;;;4.90;;
20525;SDS011;10421;49.142;9.232;2023-06-14T12:10:16;5.30;;;4.43;;
20525;SDS011;10421;49.142;9.232;2023-06-14T12:12:44;8.40;;;5.00;;
20525;SDS011;10421;49.142;9.232;2023-06-14T12:15:11;4.30;;;3.90;;
20525;SDS011;10421;49.142;9.232;2023-06-14T12:17:38;5.20;;;4.00;;
20525;SDS011;10421;49.142;9.232;2023-06-14T12:20:07;6.20;;;4.23;;
20525;SDS011;10421;49.142;9.232;2023-06-14T12:22:38;5.57;;;5.00;;
20525;SDS011;10421;49.142;9.232;2023-06-14T12:25:06;4.90;;;4.40;;
20525;SDS011;10421;49.142;9.232;2023-06-14T12:27:34;5.50;;;4.97;;
20525;SDS011;10421;49.142;9.232;2023-06-14T12:30:03;5.27;;;4.77;;
20525;SDS011;10421;49.142;9.232;2023-06-14T12:32:32;6.13;;;5.63;;
20525;SDS011;10421;49.142;9.232;2023-06-14T12:34:59;5.60;;;5.00;;
20525;SDS011;10421;49.142;9.232;2023-06-14T12:37:26;13.23;;;4.83;;
20525;SDS011;10421;49.142;9.232;2023-06-14T12:39:52;5.53;;;5.03;;
20525;SDS011;10421;49.142;9.232;2023-06-14T12:42:19;4.50;;;4.10;;
20525;SDS011;10421;49.142;9.232;2023-06-14T12:44:46;5.70;;;4.57;;
20525;SDS011;10421;49.142;9.232;2023-06-14T12:47:14;5.50;;;5.00;;
20525;SDS011;10421;49.142;9.232;2023-06-14T12:49:41;5.30;;;4.27;;
20525;SDS011;10421;49.142;9.232;2023-06-14T12:52:07;5.70;;;5.20;;
20525;SDS011;10421;49.142;9.232;2023-06-14T12:54:35;4.83;;;4.40;;
20525;SDS011;10421;49.142;9.232;2023-06-14T12:57:01;6.13;;;5.40;;
20525;SDS011;10421;49.142;9.232;2023-06-14T12:59:28;7.67;;;4.70;;
20525;SDS011;10421;49.142;9.232;2023-06-14T13:01:58;6.43;;;5.40;;
20525;SDS011;10421;49.142;9.232;2023-06-14T13:04:27;6.80;;;4.80;;
20525;SDS011;10421;49.142;9.232;2023-06-14T13:06:54;6.13;;;4.60;;
20525;SDS011;10421;49.142;9.232;2023-06-14T13:09:21;8.53;;;5.53;;
20525;SDS011;10421;49.142;9.232;2023-06-14T13:11:48;5.57;;;5.03;;
20525;SDS011;10421;49.142;9.232;2023-06-14T13:14:14;6.43;;;5.67;;
20525;SDS011;10421;49.142;9.232;2023-06-14T13:16:42;8.10;;;5.07;;
20525;SDS011;10421;49.142;9.232;2023-06-14T13:19:08;5.30;;;4.80;;
20525;SDS011;10421;49.142;9.232;2023-06-14T13:21:37;7.07;;;5.57;;
20525;SDS011;10421;49.142;9.232;2023-06-14T13:24:04;6.83;;;5.47;;
20525;SDS011;10421;49.142;9.232;2023-06-14T13:26:31;6.30;;;5.00;;
20525;SDS011;10421;49.142;9.232;2023-06-14T13:29:00;5.83;;;5.23;;
20525;SDS011;10421;49.142;9.232;2023-06-14T13:31:27;4.57;;;4.17;;
20525;SDS011;10421;49.142;9.232;2023-06-14T13:33:54;5.23;;;4.73;;
20525;SDS011;10421;49.142;9.232;2023-06-14T13:36:20;5.33;;;4.83;;
20525;SDS011;10421;49.142;9.232;2023-06-14T13:38:49;7.30;;;5.30;;
20525;SDS011;10421;49.142;9.232;2023-06-14T13:41:16;9.77;;;5.43;;
20525;SDS011;10421;49.142;9.232;2023-06-14T13:43:43;6.07;;;5.20;;
20525;SDS011;10421;49.142;9.232;2023-06-14T13:46:10;5.67;;;5.17;;
20525;SDS011;10421;49.142;9.232;2023-06-14T13:48:37;5.60;;;5.10;;
20525;SDS011;10421;49.142;9.232;2023-06-14T13:51:03;5.17;;;4.60;;
20525;SDS011;10421;49.142;9.232;2023-06-14T13:53:30;5.30;;;4.87;;
20525;SDS011;10421;49.142;9.232;2023-06-14T13:55:58;7.73;;;5.30;;
20525;SDS011;10421;49.142;9.232;2023-06-14T13:58:25;6.60;;;5.90;;
20525;SDS011;10421;49.142;9.232;2023-06-14T14:00:52;6.40;;;5.00;;
20525;SDS011;10421;49.142;9.232;2023-06-14T14:03:19;6.67;;;5.20;;
20525;SDS011;10421;49.142;9.232;2023-06-14T14:05:46;6.00;;;5.37;;
20525;SDS011;10421;49.142;9.232;2023-06-14T14:08:13;5.43;;;4.93;;
20525;SDS011;10421;49.142;9.232;2023-06-14T14:10:40;6.90;;;5.63;;
20525;SDS011;10421;49.142;9.232;2023-06-14T14:13:08;4.87;;;4.47;;
20525;SDS011;10421;49.142;9.232;2023-06-14T14:15:35;7.00;;;6.17;;
20525;SDS011;10421;49.142;9.232;2023-06-14T14:18:02;5.60;;;5.00;;
20525;SDS011;10421;49.142;9.232;2023-06-14T14:20:30;5.03;;;4.53;;
20525;SDS011;10421;49.142;9.232;2023-06-14T14:22:57;5.87;;;5.27;;
20525;SDS011;10421;49.142;9.232;2023-06-14T14:25:24;6.10;;;5.60;;
20525;SDS011;10421;49.142;9.232;2023-06-14T14:27:51;5.80;;;5.13;;
20525;SDS011;10421;49.142;9.232;2023-06-14T14:30:21;5.77;;;5.17;;
20525;SDS011;10421;49.142;9.232;2023-06-14T14:32:48;5.07;;;4.67;;
20525;SDS011;10421;49.142;9.232;2023-06-14T14:35:17;5.43;;;5.00;;
20525;SDS011;10421;49.142;9.232;2023-06-14T14:37:43;7.67;;;5.40;;
20525;SDS011;10421;49.142;9.232;2023-06-14T14:40:11;5.33;;;4.83;;
20525;SDS011;10421;49.142;9.232;2023-06-14T14:42:38;5.30;;;4.80;;
20525;SDS011;10421;49.142;9.232;2023-06-14T14:45:05;7.37;;;5.03;;
20525;SDS011;10421;49.142;9.232;2023-06-14T14:47:34;7.50;;;5.63;;
20525;SDS011;10421;49.142;9.232;2023-06-14T14:50:01;5.03;;;4.53;;
20525;SDS011;10421;49.142;9.232;2023-06-14T14:52:28;5.10;;;4.60;;
20525;SDS011;10421;49.142;9.232;2023-06-14T14:54:54;5.20;;;4.70;;